This is the latest recevied weather packets stored in our database for station/object K8ZAS. If no packets are shown the sender has not sent any weather packets the latest 10 day(s).
| Time | Temp. | Humidity | Pressure | Rain* | Wind** | Luminosity | Snow |
|---|---|---|---|---|---|---|---|
| 1777389619 | 5.56° C | 71% | 1016.6 hPa | 0 mm | - | 610 W/m² | - |
| 1777386619 | 4.44° C | 81% | 1016.3 hPa | 0 mm | - | 294 W/m² | - |
| 1777384817 | 3.33° C | 84% | 1015.3 hPa | 0 mm | - | 173 W/m² | - |
| 1777383617 | 2.22° C | 88% | 1014.6 hPa | 0 mm | - | 124 W/m² | - |
| 1777383018 | 1.67° C | 89% | 1014.4 hPa | 0 mm | - | 75 W/m² | - |
| 1777380018 | 1.11° C | 91% | 1013.8 hPa | 0 mm | - | 29 W/m² | - |
| 1777374620 | 1.11° C | 90% | 1013.5 hPa | 0 mm | - | 0 W/m² | - |
| 1777369822 | 1.11° C | 91% | 1013.8 hPa | 0 mm | - | 0 W/m² | - |
| 1777368622 | 0.56° C | 91% | 1013.7 hPa | 0 mm | - | 0 W/m² | - |
| 1777368022 | 0.56° C | 91% | 1013.6 hPa | 0 mm | - | 0 W/m² | - |
| 1777365023 | 1.11° C | 90% | 1013.7 hPa | 0.76 mm | - | 0 W/m² | - |
| 1777357220 | 3.89° C | 71% | 1013.9 hPa | 0 mm | - | 0 W/m² | - |
| 1777356057 | 3.89° C | 69% | 1013.8 hPa | 0 mm | - | 0 W/m² | - |
| 1777355417 | 3.89° C | 68% | 1013.7 hPa | 0 mm | - | 0 W/m² | - |
| 1777353018 | 4.44° C | 72% | 1013.4 hPa | 0 mm | - | 0 W/m² | - |
| 1777351218 | 4.44° C | 72% | 1013.3 hPa | 0 mm | - | 0 W/m² | - |
| 1777350618 | 4.44° C | 71% | 1013.3 hPa | 0 mm | - | 0 W/m² | - |
| 1777350019 | 4.44° C | 72% | 1013.3 hPa | 0 mm | - | 0 W/m² | - |
| 1777349419 | 4.44° C | 71% | 1013.2 hPa | 0 mm | - | 0 W/m² | - |
| 1777347637 | 4.44° C | 71% | 1012.9 hPa | 0 mm | - | 0 W/m² | - |
| 1777345220 | 4.44° C | 71% | 1012.4 hPa | 0 mm | - | 0 W/m² | - |
| 1777341618 | 5.56° C | 66% | 1012 hPa | 0 mm | - | 7 W/m² | - |
| 1777336819 | 6.11° C | 61% | 1011.3 hPa | 0 mm | - | 96 W/m² | - |
| 1777335620 | 6.67° C | 61% | 1011.4 hPa | 0 mm | - | 65 W/m² | - |
| 1777333817 | 6.67° C | 57% | 1011.2 hPa | 0 mm | - | 120 W/m² | - |
* Rain latest hour (hover to see other rain measurements)
** Current wind speed in m/s (hover to see current wind gust speed)